DENIK EDLV-ZZZZ
Flight info
| Callsign | DENIK |
|---|---|
| Flight time | N/A |
| Altitude | |
| Route | |
| Aircraft | BT36 |
Departure
| Time | 2026-05-07 12:35 |
|---|---|
| Airport | Weeze (Niederrhein) Airport (EDLV) |
Arrival
| Time | N/A |
|---|---|
| Airport | ZZZZ |
| Time | Latitude | Longitude | Altitude | Speed | Heading |
|---|---|---|---|---|---|
| 2026-05-07 12:31 | 51.60091 | 6.15950 | 108 ft | 0 kts | 322° |
| 2026-05-07 12:34 | 51.60110 | 6.15951 | 108 ft | 0 kts | 2° |
| 2026-05-07 12:34 | 51.60169 | 6.15953 | 108 ft | 18 kts | 0° |
| 2026-05-07 12:34 | 51.60213 | 6.15778 | 109 ft | 39 kts | 274° |
| 2026-05-07 12:35 | 51.60220 | 6.14953 | 303 ft | 88 kts | 274° |
| 2026-05-07 12:35 | 51.60235 | 6.13922 | 850 ft | 91 kts | 279° |
| 2026-05-07 12:35 | 51.60312 | 6.12843 | 1451 ft | 112 kts | 281° |
| 2026-05-07 12:35 | 51.60427 | 6.11536 | 2052 ft | 119 kts | 276° |
| 2026-05-07 12:36 | 51.60054 | 6.10292 | 2367 ft | 140 kts | 219° |
| 2026-05-07 12:36 | 51.59137 | 6.09639 | 2526 ft | 146 kts | 200° |
| 2026-05-07 12:36 | 51.58153 | 6.09208 | 2612 ft | 149 kts | 179° |
| 2026-05-07 12:36 | 51.57264 | 6.09938 | 2577 ft | 149 kts | 125° |
| 2026-05-07 12:37 | 51.56848 | 6.11442 | 2543 ft | 148 kts | 102° |
| 2026-05-07 12:37 | 51.56583 | 6.13029 | 2581 ft | 147 kts | 100° |
| 2026-05-07 12:37 | 51.56373 | 6.14637 | 2629 ft | 147 kts | 98° |
| 2026-05-07 12:37 | 51.56196 | 6.16211 | 2707 ft | 140 kts | 95° |
| 2026-05-07 12:38 | 51.56081 | 6.17749 | 2523 ft | 141 kts | 93° |
| 2026-05-07 12:38 | 51.56006 | 6.19332 | 2205 ft | 141 kts | 91° |
| 2026-05-07 12:38 | 51.55941 | 6.20862 | 1978 ft | 133 kts | 90° |
| 2026-05-07 12:38 | 51.56148 | 6.22204 | 1779 ft | 122 kts | 50° |
| 2026-05-07 12:39 | 51.56869 | 6.22896 | 1505 ft | 123 kts | 11° |
| 2026-05-07 12:39 | 51.57714 | 6.23025 | 1292 ft | 119 kts | 4° |
| 2026-05-07 12:39 | 51.58511 | 6.23051 | 1156 ft | 112 kts | 360° |
| 2026-05-07 12:39 | 51.59271 | 6.22970 | 1081 ft | 107 kts | 355° |
| 2026-05-07 12:40 | 51.59913 | 6.22390 | 933 ft | 115 kts | 311° |
| 2026-05-07 12:40 | 51.60120 | 6.21150 | 810 ft | 119 kts | 269° |
| 2026-05-07 12:40 | 51.60081 | 6.19851 | 624 ft | 114 kts | 275° |
| 2026-05-07 12:40 | 51.60123 | 6.18649 | 470 ft | 104 kts | 277° |
| 2026-05-07 12:41 | 51.60164 | 6.17580 | 356 ft | 86 kts | 275° |
| 2026-05-07 12:41 | 51.60174 | 6.16651 | 234 ft | 79 kts | 279° |
| 2026-05-07 12:41 | 51.60205 | 6.15796 | 119 ft | 72 kts | 279° |
| 2026-05-07 12:41 | 51.60225 | 6.15041 | 132 ft | 85 kts | 272° |
| 2026-05-07 12:42 | 51.60249 | 6.13966 | 483 ft | 105 kts | 273° |
| 2026-05-07 12:42 | 51.60242 | 6.12748 | 991 ft | 119 kts | 274° |
| 2026-05-07 12:42 | 51.60268 | 6.11303 | 1465 ft | 132 kts | 276° |
| 2026-05-07 12:42 | 51.60137 | 6.10002 | 1898 ft | 118 kts | 238° |
| 2026-05-07 12:43 | 51.59460 | 6.09280 | 2172 ft | 119 kts | 194° |
| 2026-05-07 12:43 | 51.58629 | 6.08960 | 2333 ft | 125 kts | 194° |
| 2026-05-07 12:43 | 51.57755 | 6.08640 | 2381 ft | 132 kts | 188° |
| 2026-05-07 12:43 | 51.56866 | 6.08999 | 2400 ft | 138 kts | 142° |
| 2026-05-07 12:44 | 51.56358 | 6.10258 | 2402 ft | 139 kts | 109° |
| 2026-05-07 12:44 | 51.56013 | 6.11711 | 2419 ft | 138 kts | 108° |
| 2026-05-07 12:44 | 51.55712 | 6.13174 | 2372 ft | 138 kts | 102° |
| 2026-05-07 12:44 | 51.55435 | 6.14673 | 2301 ft | 140 kts | 102° |
| 2026-05-07 12:45 | 51.55186 | 6.16159 | 2202 ft | 136 kts | 102° |
| 2026-05-07 12:45 | 51.54938 | 6.17641 | 1941 ft | 140 kts | 102° |
| 2026-05-07 12:45 | 51.54862 | 6.19033 | 1845 ft | 118 kts | 70° |
| 2026-05-07 12:45 | 51.55355 | 6.20121 | 1590 ft | 125 kts | 32° |
| 2026-05-07 12:46 | 51.56207 | 6.20384 | 1342 ft | 126 kts | 0° |
| 2026-05-07 12:46 | 51.57056 | 6.20358 | 1198 ft | 117 kts | 358° |
| 2026-05-07 12:46 | 51.57786 | 6.20272 | 1120 ft | 94 kts | 356° |
| 2026-05-07 12:46 | 51.58430 | 6.20205 | 914 ft | 89 kts | 359° |
| 2026-05-07 12:47 | 51.59030 | 6.20143 | 761 ft | 85 kts | 357° |
| 2026-05-07 12:47 | 51.59592 | 6.19931 | 624 ft | 86 kts | 329° |
| 2026-05-07 12:47 | 51.59976 | 6.19181 | 511 ft | 91 kts | 301° |
| 2026-05-07 12:47 | 51.60159 | 6.18210 | 375 ft | 92 kts | 276° |
| 2026-05-07 12:48 | 51.60167 | 6.17202 | 277 ft | 89 kts | 276° |
| 2026-05-07 12:48 | 51.60193 | 6.16237 | 204 ft | 85 kts | 278° |
| 2026-05-07 12:48 | 51.60218 | 6.15392 | 109 ft | 61 kts | 276° |
| 2026-05-07 12:48 | 51.60234 | 6.14647 | 137 ft | 92 kts | 275° |
| 2026-05-07 12:49 | 51.60251 | 6.13463 | 430 ft | 121 kts | 273° |
| 2026-05-07 12:49 | 51.60271 | 6.11972 | 755 ft | 144 kts | 273° |
| 2026-05-07 12:49 | 51.60272 | 6.10895 | 982 ft | 145 kts | 271° |
| 2026-05-07 12:49 | 51.59904 | 6.09449 | 1394 ft | 150 kts | 227° |
| 2026-05-07 12:50 | 51.58950 | 6.08818 | 1699 ft | 155 kts | 176° |
| 2026-05-07 12:50 | 51.58056 | 6.09650 | 1927 ft | 152 kts | 119° |
| 2026-05-07 12:50 | 51.57848 | 6.11302 | 2084 ft | 153 kts | 94° |
| 2026-05-07 12:50 | 51.57787 | 6.13008 | 2407 ft | 153 kts | 88° |
| 2026-05-07 12:51 | 51.57799 | 6.14734 | 2344 ft | 156 kts | 84° |
| 2026-05-07 12:51 | 51.57849 | 6.16434 | 2302 ft | 151 kts | 83° |
| 2026-05-07 12:51 | 51.57937 | 6.17970 | 2191 ft | 125 kts | 81° |
| 2026-05-07 12:51 | 51.58235 | 6.19207 | 1807 ft | 122 kts | 48° |
| 2026-05-07 12:52 | 51.58954 | 6.19876 | 1338 ft | 120 kts | 7° |
| 2026-05-07 12:52 | 51.59714 | 6.19512 | 1036 ft | 116 kts | 323° |
| 2026-05-07 12:52 | 51.60066 | 6.18461 | 675 ft | 100 kts | 285° |
| 2026-05-07 12:52 | 51.60144 | 6.17422 | 368 ft | 90 kts | 279° |
| 2026-05-07 12:53 | 51.60193 | 6.16461 | 205 ft | 81 kts | 275° |
| 2026-05-07 12:53 | 51.60215 | 6.15602 | 113 ft | 70 kts | 275° |
| 2026-05-07 12:53 | 51.60232 | 6.14959 | 105 ft | 50 kts | 271° |
| 2026-05-07 12:53 | 51.60242 | 6.14448 | 102 ft | 43 kts | 274° |
| 2026-05-07 12:54 | 51.60248 | 6.14003 | 104 ft | 37 kts | 273° |
| 2026-05-07 12:54 | 51.60261 | 6.13609 | 103 ft | 35 kts | 272° |
| 2026-05-07 12:54 | 51.60269 | 6.13211 | 100 ft | 36 kts | 273° |
| 2026-05-07 12:54 | 51.60255 | 6.12978 | 98 ft | 13 kts | 225° |
| 2026-05-07 12:55 | 51.60153 | 6.12950 | 100 ft | 13 kts | 182° |
| 2026-05-07 12:55 | 51.60143 | 6.12950 | 100 ft | 0 kts | 179° |
| 2026-05-07 12:55 | 51.60139 | 6.12950 | 100 ft | 3 kts | 179° |
| 2026-05-07 12:56 | 51.60089 | 6.12964 | 100 ft | 11 kts | 128° |
| 2026-05-07 12:56 | 51.60080 | 6.13136 | 100 ft | 19 kts | 93° |
| 2026-05-07 12:56 | 51.60073 | 6.13388 | 101 ft | 26 kts | 92° |
| 2026-05-07 12:56 | 51.60066 | 6.13704 | 102 ft | 31 kts | 91° |
| 2026-05-07 12:57 | 51.60057 | 6.14064 | 103 ft | 34 kts | 92° |
| 2026-05-07 12:57 | 51.60049 | 6.14443 | 104 ft | 33 kts | 92° |
| 2026-05-07 12:57 | 51.60047 | 6.14763 | 105 ft | 18 kts | 96° |
| 2026-05-07 12:57 | 51.59958 | 6.14802 | 105 ft | 8 kts | 117° |
| 2026-05-07 12:58 | 51.59957 | 6.14879 | 105 ft | 0 kts | 94° |